Pedro Velho, Brazil
Current Conditions -  °F | °C
As of 12:00 PM on Friday 19 Dec 2014 (Local Time) from SBNT Reporting Station
Rain Showers Rain Showers  
Wind Chill: 86°   Ceiling: 2000
Heat Index: 90°   Visibility: 6mi
Dew Point: 70°   Wind: 20mph
Humidity: 58%   Direction: 110°ESE
Pressure: NA   Gusts: NA
Location:  6.44°S, 35.22°W
Report Text: SBNT 191500Z 11017KT 9999 VCSH BKN020 FEW025TCU SCT100 30/21 Q1012
Loading
Personal Weather Stations






























Interactive Weather Map New forecast layout! Learn more

10-Day Weather Forecast

Advertisements
Track Severe Weather on mobile